tititudorancea.com
Station Historical Data
Daily Summary for March 8, 2018 Units:  Metric    English   Both
« Previous Day
Next Day »
Daily Weekly Monthly Yearly Custom
  High: Low: Average:
Temperature: -17.8 °C 10.1 °C 21.8 °C
Dew Point: -17.8 °C 5.4 °C 9.1 °C
Humidity: Humidity % 20 % 51 %
Wind Speed: 0 km/h 0 km/h 3.9 km/h
Wind Gust: 0 km/h - -
Wind:- - South
Pressure: 0 hPa 1018.8 hPa -
Precipitation: 0 mm    
Historical Graphs
 
 
Ararat weather Find more about Weather in Ararat, AU


 



 


Tabular Data for March 8, 2018
Time Temperature Dew Point Pressure Wind Wind Speed Wind Gust Humidity Rainfall Rate (Hourly)
-17.8 °C -17.8 °C 0 hPa Calm     Humidity % 0 mm
00:03 17.6 °C 11.6 °C 1021.9 hPa North 7.1 km/h 7.4 km/h 68 % 0 mm
00:08 17.5 °C 11.7 °C 1021.9 hPa SSE 1.3 km/h 3.7 km/h 69 % 0 mm
00:13 17.4 °C 11.7 °C 1021.9 hPa North 3.5 km/h 6.4 km/h 69 % 0 mm
00:19 17.3 °C 11.6 °C 1021.9 hPa SSE 3.2 km/h 5.6 km/h 69 % 0 mm
00:23 17.2 °C 11.5 °C 1021.9 hPa North 4 km/h 4 km/h 69 % 0 mm
00:28 17.1 °C 11.4 °C 1021.9 hPa SSE 2.9 km/h 3.7 km/h 69 % 0 mm
00:33 17.1 °C 11.6 °C 1021.9 hPa SSE 0.3 km/h 5.6 km/h 70 % 0 mm
00:38 16.9 °C 11.4 °C 1021.9 hPa North 0.2 km/h   70 % 0 mm
00:43 16.9 °C 11.4 °C 1021.9 hPa North 1.3 km/h 5.6 km/h 70 % 0 mm
00:48 16.8 °C 11.3 °C 1021.6 hPa Calm     70 % 0 mm
00:53 16.7 °C 11.2 °C 1021.9 hPa SSE 0.5 km/h 1.9 km/h 70 % 0 mm
00:59 16.7 °C 11.2 °C 1021.9 hPa Calm     70 % 0 mm
01:04 16.6 °C 11.1 °C 1021.6 hPa Calm     70 % 0 mm
01:09 16.4 °C 11.2 °C 1021.6 hPa Calm     71 % 0 mm
01:14 16.3 °C 11.1 °C 1021.6 hPa North 2.4 km/h 3.2 km/h 71 % 0 mm
01:19 16.3 °C 11 °C 1021.6 hPa North 2.9 km/h 3.7 km/h 71 % 0 mm
01:24 16.2 °C 10.9 °C 1021.6 hPa North 1 km/h 1.9 km/h 71 % 0 mm
01:29 16.1 °C 11.1 °C 1021.6 hPa Calm   1.6 km/h 72 % 0 mm
01:34 16.1 °C 11 °C 1021.6 hPa SSE 1.6 km/h 3.7 km/h 72 % 0 mm
01:39 15.9 °C 10.9 °C 1021.6 hPa SSE 1.9 km/h 3.7 km/h 72 % 0 mm
01:44 15.9 °C 10.9 °C 1021.6 hPa Calm     72 % 0 mm
01:49 15.9 °C 10.8 °C 1021.6 hPa North 1.3 km/h 1.9 km/h 72 % 0 mm
01:54 15.8 °C 10.7 °C 1021.6 hPa SSE 0.2 km/h 1.9 km/h 72 % 0 mm
01:59 15.6 °C 10.6 °C 1021.6 hPa Calm     72 % 0 mm
02:04 15.5 °C 10.7 °C 1021.6 hPa Calm     73 % 0 mm
02:09 15.3 °C 10.4 °C 1021.6 hPa Calm     73 % 0 mm
02:14 15.2 °C 10.6 °C 1021.6 hPa Calm     74 % 0 mm
02:19 15.2 °C 10.6 °C 1021.6 hPa Calm     74 % 0 mm
02:24 15.1 °C 10.7 °C 1021.6 hPa Calm     75 % 0 mm
02:29 15 °C 10.6 °C 1021.6 hPa Calm     75 % 0 mm
02:34 14.9 °C 10.6 °C 1021.6 hPa SSE 2.7 km/h 3.7 km/h 75 % 0 mm
02:39 14.9 °C 10.7 °C 1021.6 hPa SSE 2.9 km/h 3.7 km/h 76 % 0 mm
02:44 14.8 °C 10.7 °C 1021.6 hPa SSE 0.3 km/h 1.9 km/h 76 % 0 mm
02:49 14.8 °C 10.6 °C 1021.6 hPa Calm     76 % 0 mm
02:54 14.7 °C 10.5 °C 1021.6 hPa Calm     76 % 0 mm
02:59 14.6 °C 10.4 °C 1021.6 hPa Calm     76 % 0 mm
03:04 14.6 °C 10.6 °C 1021.6 hPa Calm     77 % 0 mm
03:09 14.6 °C 10.6 °C 1021.6 hPa Calm     77 % 0 mm
03:14 14.4 °C 10.4 °C 1021.6 hPa Calm     77 % 0 mm
03:19 14.2 °C 10.4 °C 1021.6 hPa Calm     78 % 0 mm
03:24 14.1 °C 10.3 °C 1021.6 hPa Calm     78 % 0 mm
03:29 14 °C 10.2 °C 1021.6 hPa Calm     78 % 0 mm
03:34 13.8 °C 10.1 °C 1021.6 hPa Calm     78 % 0 mm
03:39 13.7 °C 9.9 °C 1021.6 hPa Calm     78 % 0 mm
03:44 13.6 °C 10 °C 1021.2 hPa Calm     79 % 0 mm
03:49 13.4 °C 9.9 °C 1021.6 hPa Calm     79 % 0 mm
03:54 13.3 °C 9.7 °C 1021.2 hPa Calm     79 % 0 mm
03:59 13.1 °C 9.7 °C 1021.2 hPa Calm     80 % 0 mm
04:04 13.1 °C 9.9 °C 1021.2 hPa Calm     81 % 0 mm
04:09 12.9 °C 9.8 °C 1021.2 hPa Calm     81 % 0 mm
04:14 12.8 °C 9.6 °C 1021.2 hPa Calm     81 % 0 mm
04:19 12.7 °C 9.7 °C 1021.2 hPa Calm     82 % 0 mm
04:24 12.6 °C 9.6 °C 1021.2 hPa Calm     82 % 0 mm
04:29 12.4 °C 9.4 °C 1021.2 hPa Calm     82 % 0 mm
04:34 12.3 °C 9.3 °C 1021.2 hPa Calm     82 % 0 mm
04:39 12.1 °C 9.1 °C 1021.2 hPa Calm     82 % 0 mm
04:44 12 °C 9 °C 1021.2 hPa Calm     82 % 0 mm
04:49 11.9 °C 9.1 °C 1021.2 hPa Calm     83 % 0 mm
04:54 11.8 °C 9.2 °C 1021.2 hPa Calm     84 % 0 mm
04:59 11.8 °C 9.2 °C 1021.2 hPa Calm     84 % 0 mm
05:04 11.7 °C 9.3 °C 1021.2 hPa Calm     85 % 0 mm
05:09 11.7 °C 9.2 °C 1021.2 hPa Calm     85 % 0 mm
05:14 11.7 °C 9.2 °C 1021.2 hPa Calm     85 % 0 mm
05:19 11.6 °C 9.2 °C 1021.2 hPa Calm     85 % 0 mm
05:24 11.6 °C 9.1 °C 1021.2 hPa Calm     85 % 0 mm
05:29 11.5 °C 9.2 °C 1021.2 hPa Calm     86 % 0 mm
05:34 11.4 °C 9 °C 1021.2 hPa Calm     85 % 0 mm
05:39 11.4 °C 9.2 °C 1021.6 hPa Calm     86 % 0 mm
05:44 11.4 °C 9.2 °C 1021.6 hPa Calm     86 % 0 mm
05:49 11.3 °C 9 °C 1021.6 hPa Calm     86 % 0 mm
05:54 11.3 °C 9 °C 1021.6 hPa Calm     86 % 0 mm
05:59 11.2 °C 8.9 °C 1021.6 hPa Calm     86 % 0 mm
06:04 11.1 °C 8.8 °C 1021.6 hPa Calm     86 % 0 mm
06:09 11.2 °C 9.1 °C 1021.6 hPa Calm     87 % 0 mm
06:14 11.2 °C 9.1 °C 1021.6 hPa Calm     87 % 0 mm
06:19 11.2 °C 9.1 °C 1021.6 hPa Calm     87 % 0 mm
06:24 11.2 °C 9.1 °C 1021.6 hPa Calm     87 % 0 mm
06:29 11.2 °C 9.1 °C 1021.6 hPa Calm     87 % 0 mm
06:34 11 °C 8.7 °C 1021.9 hPa Calm     86 % 0 mm
06:39 10.9 °C 8.6 °C 1021.9 hPa Calm     86 % 0 mm
06:44 10.8 °C 8.6 °C 1021.9 hPa Calm     86 % 0 mm
06:49 10.7 °C 8.4 °C 1021.9 hPa Calm     86 % 0 mm
06:54 10.6 °C 8.3 °C 1022.2 hPa Calm     86 % 0 mm
06:59 10.4 °C 8.2 °C 1022.2 hPa Calm     86 % 0 mm
07:04 10.3 °C 8.2 °C 1022.2 hPa Calm     87 % 0 mm
07:09 10.2 °C 8.1 °C 1022.2 hPa Calm     87 % 0 mm
07:14 10.1 °C 8.1 °C 1022.2 hPa Calm     87 % 0 mm
07:19 10.1 °C 8.2 °C 1022.2 hPa Calm     88 % 0 mm
07:24 10.1 °C 8.2 °C 1022.2 hPa Calm     88 % 0 mm
07:29 10.1 °C 8.2 °C 1022.6 hPa Calm     88 % 0 mm
07:34 10.1 °C 8.3 °C 1022.6 hPa Calm     89 % 0 mm
07:39 10.1 °C 8.3 °C 1022.6 hPa Calm     89 % 0 mm
07:44 10.1 °C 8.3 °C 1022.6 hPa Calm     89 % 0 mm
07:49 10.2 °C 8.7 °C 1022.6 hPa Calm     90 % 0 mm
07:54 10.5 °C 8.9 °C 1022.6 hPa Calm     90 % 0 mm
07:59 10.9 °C 9.3 °C 1022.9 hPa Calm     90 % 0 mm
08:04 11.2 °C 9.7 °C 1022.9 hPa Calm     90 % 0 mm
08:09 11.7 °C 10.1 °C 1022.9 hPa Calm     90 % 0 mm
08:14 12 °C 10.2 °C 1022.9 hPa Calm     89 % 0 mm
08:20 12.4 °C 10.4 °C 1022.9 hPa Calm     88 % 0 mm
08:25 13.1 °C 11.1 °C 1022.9 hPa Calm     88 % 0 mm
08:30 13.9 °C 11.6 °C 1022.9 hPa Calm     86 % 0 mm
08:35 14.6 °C 11.9 °C 1022.9 hPa Calm     84 % 0 mm
08:40 15.6 °C 12.3 °C 1023.2 hPa SSE 3.4 km/h 8 km/h 81 % 0 mm
08:45 16.5 °C 11.4 °C 1023.2 hPa SSE 7.4 km/h 7.4 km/h 72 % 0 mm
08:50 17.3 °C 11.1 °C 1023.2 hPa SSE 6.4 km/h 7.4 km/h 67 % 0 mm
08:55 17.9 °C 11.2 °C 1023.2 hPa SSE 1.6 km/h 3.7 km/h 65 % 0 mm
09:00 18.3 °C 10.9 °C 1023.2 hPa SSE 2.6 km/h 7.4 km/h 62 % 0 mm
09:05 18.8 °C 11.2 °C 1023.2 hPa Calm     61 % 0 mm
09:10 19.4 °C 10.9 °C 1023.2 hPa SSE 1.3 km/h 3.7 km/h 58 % 0 mm
09:15 20.1 °C 10.8 °C 1023.2 hPa Calm     55 % 0 mm
09:20 20.7 °C 10.7 °C 1023.2 hPa SSE 3.4 km/h 6.4 km/h 53 % 0 mm
09:25 21.2 °C 10.6 °C 1023.2 hPa North 0.6 km/h 3.7 km/h 51 % 0 mm
09:30 21.6 °C 11.1 °C 1023.2 hPa SSE 0.5 km/h 3.2 km/h 51 % 0 mm
09:35 22.1 °C 10.8 °C 1023.2 hPa SSE 7.4 km/h 9.7 km/h 49 % 0 mm
09:40 22.4 °C 10.9 °C 1023.2 hPa SSE 3.1 km/h 5.6 km/h 48 % 0 mm
09:45 22.9 °C 11 °C 1023.2 hPa SSE 3.2 km/h 5.6 km/h 47 % 0 mm
09:50 23.1 °C 10.5 °C 1023.2 hPa SSE 6.1 km/h 9.3 km/h 45 % 0 mm
09:55 23.4 °C 10.8 °C 1023.2 hPa SSE 5.8 km/h 9.3 km/h 45 % 0 mm
10:00 23.7 °C 10.7 °C 1023.2 hPa SE 7.2 km/h 9.7 km/h 44 % 0 mm
10:05 23.9 °C 10.6 °C 1023.2 hPa ESE 3.4 km/h 7.4 km/h 43 % 0 mm
10:10 24.3 °C 10.6 °C 1023.2 hPa ENE 6 km/h 9.3 km/h 42 % 0 mm
10:15 24.7 °C 10.6 °C 1023.2 hPa ENE 5.5 km/h 7.4 km/h 41 % 0 mm
10:20 24.8 °C 9.9 °C 1023.2 hPa ENE 3.7 km/h 5.6 km/h 39 % 0 mm
10:25 24.9 °C 10.4 °C 1023.2 hPa ENE 6 km/h 9.7 km/h 40 % 0 mm
10:30 25.1 °C 10.2 °C 1023.6 hPa ENE 5.8 km/h 9.3 km/h 39 % 0 mm
10:35 25.6 °C 9.8 °C 1023.6 hPa ENE 7.9 km/h 11.1 km/h 37 % 0 mm
10:40 25.3 °C 9.2 °C 1023.6 hPa NE 6.6 km/h 13 km/h 36 % 0 mm
10:45 25.5 °C 9.7 °C 1023.2 hPa NE 2.1 km/h 5.6 km/h 37 % 0 mm
10:50 25.7 °C 8.7 °C 1023.2 hPa NE 7.9 km/h 9.3 km/h 34 % 0 mm
10:55 25.8 °C 9.6 °C 1023.2 hPa NE 7.2 km/h 9.3 km/h 36 % 0 mm
11:00 26.1 °C 9.4 °C 1023.2 hPa NE 2.6 km/h 5.6 km/h 35 % 0 mm
11:05 26.2 °C 9.1 °C 1023.2 hPa NE 4 km/h 5.6 km/h 34 % 0 mm
11:10 26.6 °C 9.4 °C 1023.2 hPa NE 5 km/h 13 km/h 34 % 0 mm
11:15 26.8 °C 9.2 °C 1023.2 hPa NE 7.6 km/h 12.9 km/h 33 % 0 mm
11:20 26.9 °C 8.8 °C 1023.2 hPa NE 2.6 km/h 5.6 km/h 32 % 0 mm
11:25 27 °C 8.9 °C 1023.2 hPa NE 3.1 km/h 5.6 km/h 32 % 0 mm
11:30 27.2 °C 9.1 °C 1022.9 hPa NE 2.1 km/h 5.6 km/h 32 % 0 mm
11:35 27.5 °C 8.4 °C 1023.2 hPa NNE 7.2 km/h 11.1 km/h 30 % 0 mm
11:40 27.4 °C 8.3 °C 1022.9 hPa NNE 6.1 km/h 11.1 km/h 30 % 0 mm
11:45 27.1 °C 8.1 °C 1022.9 hPa NNE 2.1 km/h 5.6 km/h 30 % 0 mm
11:50 27.3 °C 7.7 °C 1022.9 hPa North 6.9 km/h 7.4 km/h 29 % 0 mm
11:55 27.3 °C 7.7 °C 1022.9 hPa North 7.2 km/h 9.3 km/h 29 % 0 mm
12:00 27.5 °C 7.9 °C 1022.9 hPa North 7.2 km/h 13 km/h 29 % 0 mm
12:05 27.6 °C 7.9 °C 1022.6 hPa NW 8 km/h 11.1 km/h 29 % 0 mm
12:10 27.7 °C 8 °C 1022.6 hPa NW 6.4 km/h 9.7 km/h 29 % 0 mm
12:15 27.7 °C 8.1 °C 1022.6 hPa NW 7.2 km/h 13 km/h 29 % 0 mm
12:20 27.8 °C 8.1 °C 1022.6 hPa WNW 6.8 km/h 8 km/h 29 % 0 mm
12:25 27.9 °C 8.8 °C 1022.6 hPa WNW 4.2 km/h 5.6 km/h 30 % 0 mm
12:30 28.1 °C 7.9 °C 1022.6 hPa North 6 km/h 9.3 km/h 28 % 0 mm
12:35 28.1 °C 7.9 °C 1022.2 hPa WNW 8.7 km/h 13 km/h 28 % 0 mm
12:40 28.3 °C 8.6 °C 1022.2 hPa WNW 4.8 km/h 7.4 km/h 29 % 0 mm
12:45 28.6 °C 8.3 °C 1022.2 hPa North 8.9 km/h 12.9 km/h 28 % 0 mm
12:50 28.7 °C 8.3 °C 1022.2 hPa WNW 6.4 km/h 9.3 km/h 28 % 0 mm
12:55 28.6 °C 8.3 °C 1022.2 hPa WNW 7.4 km/h 11.1 km/h 28 % 0 mm
13:00 28.5 °C 8.2 °C 1021.9 hPa WNW 4.5 km/h 5.6 km/h 28 % 0 mm
13:05 28.7 °C 7.9 °C 1021.9 hPa West 9 km/h 14.8 km/h 27 % 0 mm
13:10 28.9 °C 8 °C 1021.9 hPa West 3.1 km/h 5.6 km/h 27 % 0 mm
13:15 28.9 °C 8 °C 1021.9 hPa West 8.4 km/h 11.3 km/h 27 % 0 mm
13:20 28.6 °C 7.8 °C 1021.6 hPa West 4.2 km/h 6.4 km/h 27 % 0 mm
13:25 28.7 °C 8.4 °C 1021.6 hPa West 2.3 km/h 7.4 km/h 28 % 0 mm
13:30 28.8 °C 7.9 °C 1021.6 hPa WSW 4.3 km/h 5.6 km/h 27 % 0 mm
13:35 28.8 °C 7.9 °C 1021.6 hPa WSW 5.6 km/h 9.3 km/h 27 % 0 mm
13:40 29 °C 8.1 °C 1021.6 hPa WSW 0.8 km/h 3.7 km/h 27 % 0 mm
13:45 29.4 °C 8.4 °C 1021.6 hPa WSW 3.7 km/h 8 km/h 27 % 0 mm
13:50 29.8 °C 8.3 °C 1021.6 hPa WSW 3.1 km/h 3.7 km/h 26 % 0 mm
13:55 30 °C 7.8 °C 1021.2 hPa WSW 6.3 km/h 7.4 km/h 25 % 0 mm
14:00 29.7 °C 8.2 °C 1021.2 hPa WSW 6 km/h 7.4 km/h 26 % 0 mm
14:05 29.9 °C 7.7 °C 1021.2 hPa SW 3.2 km/h 5.6 km/h 25 % 0 mm
14:10 30.1 °C 7.9 °C 1021.2 hPa SW 5.8 km/h 5.8 km/h 25 % 0 mm
14:15 30.3 °C 7.5 °C 1020.9 hPa East 8.7 km/h 9.3 km/h 24 % 0 mm
14:20 30.2 °C 6.8 °C 1020.9 hPa East 7.9 km/h 11.1 km/h 23 % 0 mm
14:25 30.2 °C 7.4 °C 1020.9 hPa East 5.1 km/h 7.4 km/h 24 % 0 mm
14:30 30.1 °C 7.3 °C 1020.9 hPa East 1.9 km/h 7.4 km/h 24 % 0 mm
14:35 30.2 °C 7.4 °C 1020.9 hPa East 3.4 km/h 5.6 km/h 24 % 0 mm
14:40 30.5 °C 7.7 °C 1020.5 hPa East 1.6 km/h 5.6 km/h 24 % 0 mm
14:45 30.5 °C 7.7 °C 1020.5 hPa South 10.6 km/h 16.7 km/h 24 % 0 mm
14:50 30.3 °C 7.4 °C 1020.5 hPa SE 4.8 km/h 11.1 km/h 24 % 0 mm
14:55 30.2 °C 7.4 °C 1020.5 hPa SSW 14.2 km/h 16.7 km/h 24 % 0 mm
15:00 29.8 °C 7.1 °C 1020.5 hPa SSW 8.4 km/h 11.1 km/h 24 % 0 mm
15:05 29.8 °C 7.1 °C 1020.5 hPa SW 11.7 km/h 14.8 km/h 24 % 0 mm
15:10 29.6 °C 6.9 °C 1020.2 hPa SSW 3.4 km/h 5.6 km/h 24 % 0 mm
15:15 30.2 °C 7.4 °C 1020.2 hPa SSW 3.2 km/h 5.6 km/h 24 % 0 mm
15:20 30.6 °C 7.1 °C 1020.2 hPa NNE 7.2 km/h 12.9 km/h 23 % 0 mm
15:25 30.8 °C 7.3 °C 1020.2 hPa ENE 8.2 km/h 11.1 km/h 23 % 0 mm
15:30 30.7 °C 7.2 °C 1019.9 hPa ENE 4.2 km/h 6.4 km/h 23 % 0 mm
15:35 30.7 °C 7.2 °C 1019.9 hPa ENE 7.9 km/h 9.3 km/h 23 % 0 mm
15:40 31.1 °C 6.8 °C 1019.9 hPa East 8.4 km/h 11.1 km/h 22 % 0 mm
15:45 30.8 °C 7.3 °C 1019.9 hPa East 8.5 km/h 11.1 km/h 23 % 0 mm
15:50 30.9 °C 7.3 °C 1019.9 hPa East 0.8 km/h 7.4 km/h 23 % 0 mm
15:55 31.2 °C 6.9 °C 1019.9 hPa East 1.3 km/h 3.7 km/h 22 % 0 mm
16:00 31.3 °C 7.1 °C 1019.9 hPa ESE 6.3 km/h 9.7 km/h 22 % 0 mm
16:05 31.6 °C 7.2 °C 1019.5 hPa ESE 9.5 km/h 18.5 km/h 22 % 0 mm
16:10 31.5 °C 7.2 °C 1019.5 hPa ESE 6.3 km/h 14.8 km/h 22 % 0 mm
16:15 31.5 °C 7.8 °C 1019.5 hPa ESE 5.1 km/h 7.4 km/h 23 % 0 mm
16:20 31.8 °C 7.5 °C 1019.5 hPa ESE 5 km/h 7.4 km/h 22 % 0 mm
16:25 32 °C 6.9 °C 1019.5 hPa ESE 6.1 km/h 9.3 km/h 21 % 0 mm
16:30 31.8 °C 6.8 °C 1019.2 hPa SE 9.5 km/h 18.5 km/h 21 % 0 mm
16:35 31.9 °C 6.8 °C 1019.2 hPa SE 3.9 km/h 13 km/h 21 % 0 mm
16:40 32 °C 6.9 °C 1019.2 hPa SE 9.3 km/h 18.5 km/h 21 % 0 mm
16:46 31.7 °C 6.7 °C 1019.2 hPa SE 3.1 km/h 9.3 km/h 21 % 0 mm
16:51 31.6 °C 7.3 °C 1019.2 hPa SE 2.7 km/h 5.6 km/h 22 % 0 mm
16:56 31.5 °C 6.5 °C 1019.2 hPa SE 2.1 km/h 5.6 km/h 21 % 0 mm
17:01 31.4 °C 6.4 °C 1019.2 hPa North 8.2 km/h 14.8 km/h 21 % 0 mm
17:06 31.3 °C 7 °C 1019.2 hPa SW 5 km/h 9.3 km/h 22 % 0 mm
17:11 31.4 °C 6.5 °C 1018.8 hPa SSE 7.9 km/h 13 km/h 21 % 0 mm
17:16 31.6 °C 6.6 °C 1019.2 hPa SSE 9.5 km/h 14.8 km/h 21 % 0 mm
17:21 31.6 °C 6.6 °C 1019.2 hPa SSE 8.2 km/h 11.1 km/h 21 % 0 mm
17:26 31.5 °C 5.8 °C 1019.2 hPa SSE 5.5 km/h 5.6 km/h 20 % 0 mm
17:31 31.4 °C 6.5 °C 1019.2 hPa SE 8.2 km/h 11.3 km/h 21 % 0 mm
17:36 31.4 °C 6.4 °C 1019.2 hPa SSE 9.8 km/h 16.7 km/h 21 % 0 mm
17:41 31.2 °C 6.2 °C 1019.2 hPa SSE 8.4 km/h 11.1 km/h 21 % 0 mm
17:46 31.2 °C 6.2 °C 1019.2 hPa South 10.1 km/h 14.8 km/h 21 % 0 mm
17:51 31.2 °C 6.2 °C 1019.2 hPa SSE 8 km/h 14.8 km/h 21 % 0 mm
17:56 31.3 °C 6.3 °C 1019.2 hPa SSE 7.7 km/h 9.3 km/h 21 % 0 mm
18:01 31.3 °C 6.4 °C 1019.2 hPa SSE 1.6 km/h 8 km/h 21 % 0 mm
18:06 31.4 °C 6.4 °C 1019.2 hPa SSE 6.1 km/h 9.3 km/h 21 % 0 mm
18:11 31.4 °C 5.7 °C 1019.2 hPa SSE 0.2 km/h 1.9 km/h 20 % 0 mm
18:16 31.5 °C 6.5 °C 1019.2 hPa South 9.3 km/h 14.8 km/h 21 % 0 mm
18:21 31.3 °C 6.3 °C 1019.2 hPa South 9.2 km/h 14.8 km/h 21 % 0 mm
18:26 31.2 °C 6.2 °C 1019.2 hPa South 11.6 km/h 14.8 km/h 21 % 0 mm
18:31 31.1 °C 6.8 °C 1019.2 hPa SSE 5.6 km/h 12.9 km/h 22 % 0 mm
18:36 30.9 °C 6.7 °C 1019.2 hPa SSE 9.8 km/h 14.8 km/h 22 % 0 mm
18:41 30.7 °C 5.9 °C 1019.2 hPa South 14.2 km/h 18.5 km/h 21 % 0 mm
18:46 30.6 °C 6.4 °C 1019.2 hPa South 9 km/h 11.1 km/h 22 % 0 mm
18:51 30.5 °C 6.4 °C 1019.5 hPa SSE 2.6 km/h 9.3 km/h 22 % 0 mm
18:56 30.4 °C 5.7 °C 1019.5 hPa SSE 5 km/h 9.3 km/h 21 % 0 mm
19:01 30.3 °C 5.6 °C 1019.5 hPa South 7.6 km/h 11.1 km/h 21 % 0 mm
19:06 30.2 °C 6.2 °C 1019.5 hPa South 2.9 km/h 5.6 km/h 22 % 0 mm
19:11 30.2 °C 5.4 °C 1019.5 hPa South 6.1 km/h 14.8 km/h 21 % 0 mm
19:16 30.1 °C 6.1 °C 1019.5 hPa South 5.3 km/h 8 km/h 22 % 0 mm
19:21 30 °C 5.9 °C 1019.5 hPa South 6.6 km/h 11.1 km/h 22 % 0 mm
19:26 29.8 °C 5.8 °C 1019.5 hPa South 7.7 km/h 9.3 km/h 22 % 0 mm
19:31 29.7 °C 5.7 °C 1019.5 hPa South 1 km/h 3.7 km/h 22 % 0 mm
19:36 29.5 °C 5.6 °C 1019.5 hPa South 3.5 km/h 7.4 km/h 22 % 0 mm
19:41 29.2 °C 5.9 °C 1019.5 hPa South 6.8 km/h 9.7 km/h 23 % 0 mm
19:46 28.7 °C 6.2 °C 1019.9 hPa SSW 13.5 km/h 22.2 km/h 24 % 0 mm
19:51 28.3 °C 8 °C 1019.9 hPa SSW 12.1 km/h 14.8 km/h 28 % 0 mm
19:56 28.1 °C 8.3 °C 1019.9 hPa SSE 9 km/h 18.5 km/h 29 % 0 mm
20:01 27.7 °C 8 °C 1019.9 hPa SSE 8.9 km/h 14.8 km/h 29 % 0 mm
20:06 27.5 °C 8.4 °C 1020.2 hPa SSE 4.7 km/h 11.3 km/h 30 % 0 mm
20:11 27.3 °C 8.2 °C 1020.2 hPa South 13.5 km/h 25.9 km/h 30 % 0 mm
20:16 27.1 °C 8.9 °C 1020.2 hPa SSW 10.6 km/h 18.5 km/h 32 % 0 mm
20:21 26.8 °C 10.1 °C 1020.2 hPa South 8.9 km/h 16.7 km/h 35 % 0 mm
20:26 26.4 °C 10.5 °C 1020.5 hPa SSW 10.1 km/h 18.5 km/h 37 % 0 mm
20:31 26.2 °C 11.1 °C 1020.5 hPa South 7.9 km/h 13 km/h 39 % 0 mm
20:36 25.8 °C 11.2 °C 1020.5 hPa SSW 10.9 km/h 16.7 km/h 40 % 0 mm
20:41 25.5 °C 11.3 °C 1020.9 hPa South 13.5 km/h 22.2 km/h 41 % 0 mm
20:46 25.3 °C 11.1 °C 1020.9 hPa South 8.4 km/h 14.8 km/h 41 % 0 mm
20:51 25 °C 11.2 °C 1020.9 hPa SSW 9.3 km/h 13 km/h 42 % 0 mm
20:56 24.7 °C 11.2 °C 1020.9 hPa South 9.2 km/h 14.8 km/h 43 % 0 mm
21:01 24.3 °C 11.2 °C 1021.2 hPa SSW 8.2 km/h 16.1 km/h 44 % 0 mm
21:06 23.9 °C 10.9 °C 1021.2 hPa South 13 km/h 18.5 km/h 44 % 0 mm
21:11 23.7 °C 11.1 °C 1021.2 hPa South 5.3 km/h 11.1 km/h 45 % 0 mm
21:16 23.4 °C 11.2 °C 1021.2 hPa South 11.9 km/h 16.7 km/h 46 % 0 mm
21:21 23.3 °C 11.1 °C 1021.6 hPa South 5.8 km/h 6.4 km/h 46 % 0 mm
21:26 23.2 °C 10.9 °C 1021.6 hPa South 7.1 km/h 11.1 km/h 46 % 0 mm
21:31 22.9 °C 11 °C 1021.6 hPa South 3.9 km/h 7.4 km/h 47 % 0 mm
21:36 22.7 °C 11.2 °C 1021.6 hPa South 4.3 km/h 8 km/h 48 % 0 mm
21:41 22.5 °C 10.9 °C 1021.6 hPa South 0.5 km/h 6.4 km/h 48 % 0 mm
21:46 22.3 °C 11.1 °C 1021.9 hPa South 3.7 km/h 8 km/h 49 % 0 mm
21:51 22.1 °C 10.9 °C 1021.9 hPa South 1.8 km/h 7.4 km/h 49 % 0 mm
21:56 21.9 °C 11.1 °C 1021.9 hPa South 3.4 km/h 6.4 km/h 50 % 0 mm
22:01 21.7 °C 10.8 °C 1021.9 hPa South 6.6 km/h 11.1 km/h 50 % 0 mm
22:06 21.6 °C 11 °C 1021.9 hPa South 6 km/h 8 km/h 51 % 0 mm
22:11 21.4 °C 11.2 °C 1021.9 hPa South 1.9 km/h 9.3 km/h 52 % 0 mm
22:16 21.3 °C 11.1 °C 1022.2 hPa South 3.9 km/h 5.6 km/h 52 % 0 mm
22:21 21.2 °C 10.9 °C 1022.2 hPa South 2.4 km/h 3.7 km/h 52 % 0 mm
22:26 21.1 °C 11.1 °C 1022.2 hPa Calm     53 % 0 mm
22:30 20.9 °C 11.3 °C 1022.2 hPa South 3.5 km/h 3.5 km/h 54 % 0 mm
22:35 20.8 °C 11.1 °C 1022.2 hPa South 3.9 km/h 6.4 km/h 54 % 0 mm
22:40 20.5 °C 11.2 °C 1022.2 hPa South 1.3 km/h 7.4 km/h 55 % 0 mm
22:45 20.4 °C 11.1 °C 1022.2 hPa South 1.3 km/h 3.2 km/h 55 % 0 mm
22:50 20.2 °C 11.1 °C 1022.2 hPa South 0.2 km/h 3.2 km/h 56 % 0 mm
22:55 20.1 °C 11.3 °C 1022.2 hPa South 7.4 km/h 7.4 km/h 57 % 0 mm
23:00 20.1 °C 11.3 °C 1022.2 hPa SSE 8.5 km/h 11.1 km/h 57 % 0 mm
23:05 20 °C 11.2 °C 1021.9 hPa SSE 4.7 km/h 7.4 km/h 57 % 0 mm
23:10 19.9 °C 11.4 °C 1021.9 hPa SSE 6.4 km/h 9.3 km/h 58 % 0 mm
23:15 19.9 °C 11.4 °C 1021.9 hPa SSE 6.8 km/h 11.1 km/h 58 % 0 mm
23:20 19.9 °C 11.4 °C 1021.9 hPa SSE 8.7 km/h 11.1 km/h 58 % 0 mm
23:25 19.9 °C 11.2 °C 1021.9 hPa SSE 2.4 km/h 5.6 km/h 57 % 0 mm
23:30 20 °C 10.9 °C 1021.9 hPa SSE 2.9 km/h 7.4 km/h 56 % 0 mm
23:35 20.1 °C 10.8 °C 1021.9 hPa SSE 1.6 km/h 6.4 km/h 55 % 0 mm
23:40 20.1 °C 10.8 °C 1022.2 hPa SSE 3.1 km/h 3.7 km/h 55 % 0 mm
23:45 20 °C 10.7 °C 1022.2 hPa Calm     55 % 0 mm
23:50 19.8 °C 10.5 °C 1021.9 hPa SSE 6.1 km/h 7.4 km/h 55 % 0 mm
23:55 19.8 °C 10.7 °C 1021.9 hPa SSE 1.3 km/h 3.2 km/h 56 % 0 mm
Ararat Weather
Compliments of Weather Underground - 2.25 mb
Click here to send mail.


ABOUT

Live weather data from Ararat, Victoria, Australia, 3377
Data uploaded from Cumulus every 5 minutes to Weather Underground.
This site then downloads the raw data for formatting and display.
Metric and imperial data can be displayed. Graphs and historical data available.
Includes Sun and Moon times and rain image live from BOM.

Check out Ararat Weather on Facebook, Twitter and Google +

Help support ongoing costs by checking out the ads





Follow @AraratWeather